createdAt,value
2022-08-21T00:00:25.370Z,20.96
2022-08-21T00:02:59.645Z,20.71
2022-08-21T00:05:27.046Z,20.62
2022-08-21T00:07:54.891Z,20.73
2022-08-21T00:10:22.452Z,20.67
2022-08-21T00:12:49.507Z,20.75
2022-08-21T00:15:31.756Z,20.78
2022-08-21T00:17:58.742Z,20.79
2022-08-21T00:20:26.230Z,20.59
2022-08-21T00:22:53.370Z,20.64
2022-08-21T00:25:24.323Z,20.46
2022-08-21T00:27:54.544Z,20.49
2022-08-21T00:30:26.116Z,20.33
2022-08-21T00:32:54.779Z,20.46
2022-08-21T00:35:25.352Z,20.24
2022-08-21T00:37:55.115Z,20.19
2022-08-21T00:40:27.174Z,20.22
2022-08-21T00:42:54.175Z,20.29
2022-08-21T00:45:22.718Z,20.19
2022-08-21T00:47:51.154Z,20.06
2022-08-21T00:50:21.708Z,19.91
2022-08-21T00:52:51.468Z,19.94
2022-08-21T00:55:18.990Z,20.03
2022-08-21T00:57:50.328Z,20.02
2022-08-21T01:00:22.851Z,20.04
2022-08-21T01:02:49.680Z,20.25
2022-08-21T01:05:26.873Z,20.25
2022-08-21T01:07:58.967Z,19.95
2022-08-21T01:10:35.688Z,20.11
2022-08-21T01:13:14.011Z,19.80
2022-08-21T01:15:45.767Z,20.04
2022-08-21T01:18:16.309Z,20.00
2022-08-21T01:20:53.049Z,19.87
2022-08-21T01:23:19.843Z,19.80
2022-08-21T01:25:46.602Z,19.81
2022-08-21T01:28:15.146Z,19.89
2022-08-21T01:30:43.648Z,19.69
2022-08-21T01:33:11.138Z,19.72
2022-08-21T01:35:38.130Z,19.52
2022-08-21T01:38:04.923Z,19.62
2022-08-21T01:40:31.690Z,19.70
2022-08-21T01:42:58.575Z,19.71
2022-08-21T01:45:25.490Z,19.79
2022-08-21T01:47:52.572Z,19.92
2022-08-21T01:50:21.501Z,19.90
2022-08-21T01:52:48.783Z,19.95
2022-08-21T01:55:17.324Z,19.87
2022-08-21T01:57:44.716Z,19.86
2022-08-21T02:00:14.011Z,19.83
2022-08-21T02:02:43.106Z,19.84
2022-08-21T02:05:11.637Z,19.90
2022-08-21T02:07:44.218Z,19.83
2022-08-21T02:10:14.838Z,19.65
2022-08-21T02:12:41.598Z,19.61
2022-08-21T02:15:10.355Z,19.73
2022-08-21T02:17:48.159Z,19.60
2022-08-21T02:20:36.898Z,19.71
2022-08-21T02:23:05.179Z,19.72
2022-08-21T02:25:32.332Z,19.20
2022-08-21T02:28:00.309Z,19.26
2022-08-21T02:30:33.912Z,19.25
2022-08-21T02:33:01.270Z,19.02
2022-08-21T02:35:28.440Z,18.88
2022-08-21T02:37:59.239Z,18.68
2022-08-21T02:40:31.747Z,18.84
2022-08-21T02:42:59.590Z,18.71
2022-08-21T02:45:27.314Z,18.72
2022-08-21T02:47:56.987Z,18.54
2022-08-21T02:50:30.578Z,18.52
2022-08-21T02:52:58.134Z,18.61
2022-08-21T02:55:27.538Z,18.69
2022-08-21T02:57:55.931Z,18.56
2022-08-21T03:00:24.045Z,18.70
2022-08-21T03:02:51.495Z,18.38
2022-08-21T03:05:19.131Z,18.65
2022-08-21T03:07:47.401Z,18.45
2022-08-21T03:10:14.954Z,18.85
2022-08-21T03:12:42.285Z,18.98
2022-08-21T03:15:11.790Z,18.90
2022-08-21T03:17:38.689Z,18.77
2022-08-21T03:20:08.136Z,18.49
2022-08-21T03:22:35.494Z,18.85
2022-08-21T03:25:02.294Z,18.80
2022-08-21T03:27:34.898Z,18.95
2022-08-21T03:30:05.456Z,18.72
2022-08-21T03:32:33.003Z,18.86
2022-08-21T03:35:01.250Z,18.81
2022-08-21T03:37:28.380Z,18.74
2022-08-21T03:39:55.407Z,18.70
2022-08-21T03:42:22.249Z,18.72
2022-08-21T03:44:49.198Z,18.71
2022-08-21T03:47:15.972Z,18.87
2022-08-21T03:49:42.716Z,18.58
2022-08-21T03:52:09.624Z,18.61
2022-08-21T03:54:36.356Z,18.25
2022-08-21T03:57:03.437Z,18.17
2022-08-21T03:59:30.253Z,18.13
2022-08-21T04:01:59.751Z,18.17
2022-08-21T04:04:28.116Z,18.55
2022-08-21T04:06:55.877Z,18.54
2022-08-21T04:09:22.648Z,18.41
2022-08-21T04:11:49.956Z,18.46
2022-08-21T04:14:17.185Z,18.46
2022-08-21T04:16:44.118Z,18.30
2022-08-21T04:19:12.466Z,18.10
2022-08-21T04:21:40.228Z,18.22
2022-08-21T04:24:09.434Z,18.18
2022-08-21T04:26:37.391Z,18.18
2022-08-21T04:29:05.909Z,18.24
2022-08-21T04:31:32.955Z,18.48
2022-08-21T04:34:00.161Z,18.35
2022-08-21T04:36:26.905Z,18.40
2022-08-21T04:38:53.835Z,18.62
2022-08-21T04:41:27.807Z,18.43
2022-08-21T04:43:58.899Z,18.21
2022-08-21T04:46:26.079Z,18.31
2022-08-21T04:48:52.922Z,18.34
2022-08-21T04:51:34.326Z,18.35
2022-08-21T04:54:04.222Z,18.33
2022-08-21T04:56:34.182Z,18.47
2022-08-21T04:59:04.763Z,18.45
2022-08-21T05:01:34.936Z,18.24
2022-08-21T05:04:03.768Z,18.38
2022-08-21T05:06:32.975Z,18.27
2022-08-21T05:09:02.139Z,18.39
2022-08-21T05:11:31.409Z,18.35
2022-08-21T05:13:58.549Z,18.44
2022-08-21T05:16:36.474Z,18.29
2022-08-21T05:19:06.978Z,18.62
2022-08-21T05:21:34.979Z,18.43
2022-08-21T05:24:01.982Z,18.60
2022-08-21T05:26:28.895Z,18.58
2022-08-21T05:28:55.640Z,18.50
2022-08-21T05:31:24.560Z,18.62
2022-08-21T05:33:52.022Z,18.87
2022-08-21T05:36:19.653Z,18.79
2022-08-21T05:38:46.929Z,18.94
2022-08-21T05:41:13.824Z,18.70
2022-08-21T05:43:40.699Z,18.73
2022-08-21T05:46:08.687Z,19.31
2022-08-21T05:48:36.452Z,20.15
2022-08-21T05:51:09.168Z,21.26
2022-08-21T05:53:36.384Z,22.30
2022-08-21T05:56:04.784Z,23.22
2022-08-21T05:58:33.763Z,23.66
2022-08-21T06:01:01.427Z,24.16
2022-08-21T06:03:31.429Z,25.36
2022-08-21T06:05:58.666Z,25.73
2022-08-21T06:08:26.409Z,26.63
2022-08-21T06:10:55.135Z,27.24
2022-08-21T06:13:22.958Z,27.78
2022-08-21T06:15:50.338Z,28.17
2022-08-21T06:18:17.400Z,27.71
2022-08-21T06:20:45.297Z,28.42
2022-08-21T06:23:11.983Z,29.87
2022-08-21T06:25:38.654Z,30.31
2022-08-21T06:28:08.500Z,30.29
2022-08-21T06:30:37.035Z,30.56
2022-08-21T06:33:04.501Z,30.35
2022-08-21T06:35:31.270Z,29.70
2022-08-21T06:37:58.559Z,29.48
2022-08-21T06:40:26.573Z,30.56
2022-08-21T06:42:53.527Z,30.55
2022-08-21T06:45:20.725Z,30.18
2022-08-21T06:47:47.452Z,30.61
2022-08-21T06:50:14.177Z,31.09
2022-08-21T06:52:41.257Z,30.40
2022-08-21T06:55:09.887Z,30.54
2022-08-21T06:57:36.767Z,30.45
2022-08-21T07:00:08.377Z,30.93
2022-08-21T07:02:35.540Z,27.75
2022-08-21T07:05:18.049Z,28.52
2022-08-21T07:07:46.005Z,27.86
2022-08-21T07:10:22.462Z,27.43
2022-08-21T07:13:01.003Z,28.53
2022-08-21T07:15:31.177Z,27.50
2022-08-21T07:17:59.157Z,27.21
2022-08-21T07:20:26.970Z,27.21
2022-08-21T07:22:53.719Z,26.53
2022-08-21T07:25:20.698Z,26.46
2022-08-21T07:27:47.500Z,26.62
2022-08-21T07:30:14.286Z,26.37
2022-08-21T07:32:41.370Z,26.61
2022-08-21T07:35:08.422Z,26.17
2022-08-21T07:37:35.197Z,26.27
2022-08-21T07:40:05.077Z,26.26
2022-08-21T07:42:31.898Z,26.08
2022-08-21T07:44:58.633Z,26.31
2022-08-21T07:47:41.535Z,26.69
2022-08-21T07:50:10.897Z,26.63
2022-08-21T07:52:37.957Z,26.27
2022-08-21T07:55:06.635Z,25.88
2022-08-21T07:57:33.971Z,26.31
2022-08-21T08:00:00.690Z,26.14
2022-08-21T08:02:29.730Z,26.09
2022-08-21T08:05:04.379Z,26.01
2022-08-21T08:07:31.513Z,26.74
2022-08-21T08:09:59.339Z,26.09
2022-08-21T08:12:30.499Z,25.91
2022-08-21T08:14:58.741Z,26.16
2022-08-21T08:17:26.002Z,25.95
2022-08-21T08:19:52.744Z,26.23
2022-08-21T08:22:22.720Z,26.46
2022-08-21T08:24:49.575Z,26.44
2022-08-21T08:27:17.200Z,26.09
2022-08-21T08:29:45.025Z,26.49
2022-08-21T08:32:11.916Z,26.23
2022-08-21T08:34:40.233Z,26.02
2022-08-21T08:37:10.774Z,26.42
2022-08-21T08:39:38.020Z,26.07
2022-08-21T08:42:32.050Z,25.89
2022-08-21T08:45:13.907Z,26.24
2022-08-21T08:47:45.592Z,25.78
2022-08-21T08:50:29.165Z,26.35
2022-08-21T08:53:04.286Z,26.49
2022-08-21T08:55:38.667Z,26.88
2022-08-21T08:58:05.995Z,25.89
2022-08-21T09:00:33.068Z,26.59
2022-08-21T09:03:02.904Z,26.95
2022-08-21T09:05:42.628Z,26.87
2022-08-21T09:08:21.615Z,26.57
2022-08-21T09:10:51.285Z,26.86
2022-08-21T09:13:38.742Z,26.92
2022-08-21T09:16:33.053Z,27.31
2022-08-21T09:19:02.934Z,26.85
2022-08-21T09:22:11.584Z,26.48
2022-08-21T09:24:51.357Z,26.94
2022-08-21T09:27:20.337Z,26.76
2022-08-21T09:29:53.129Z,26.61
2022-08-21T09:32:32.463Z,26.92
2022-08-21T09:35:07.691Z,26.43
2022-08-21T09:37:56.636Z,26.55
2022-08-21T09:40:35.643Z,26.18
2022-08-21T09:43:04.641Z,25.48
2022-08-21T09:45:34.203Z,26.58
2022-08-21T09:48:12.210Z,25.86
2022-08-21T09:50:39.536Z,26.31
2022-08-21T09:53:06.814Z,26.87
2022-08-21T09:55:58.085Z,26.88
2022-08-21T09:58:32.923Z,27.01
2022-08-21T10:01:02.260Z,27.66
2022-08-21T10:03:29.323Z,27.12
2022-08-21T10:06:00.735Z,27.05
2022-08-21T10:08:29.737Z,26.89
2022-08-21T10:11:05.318Z,27.51
2022-08-21T10:13:38.260Z,27.32
2022-08-21T10:16:23.832Z,27.39
2022-08-21T10:19:24.931Z,27.16
2022-08-21T10:22:36.608Z,26.61
2022-08-21T10:25:35.443Z,26.86
2022-08-21T10:28:11.457Z,27.03
2022-08-21T10:30:49.530Z,27.39
2022-08-21T10:33:35.121Z,27.35
2022-08-21T10:36:21.367Z,27.70
2022-08-21T10:39:12.052Z,27.50
2022-08-21T10:42:09.448Z,27.47
2022-08-21T10:44:59.485Z,27.31
2022-08-21T10:47:34.374Z,26.97
2022-08-21T10:50:07.100Z,27.09
2022-08-21T10:52:55.426Z,27.08
2022-08-21T10:55:25.091Z,27.39
2022-08-21T10:57:58.762Z,26.44
2022-08-21T11:00:47.729Z,26.81
2022-08-21T11:03:19.450Z,26.67
2022-08-21T11:05:52.627Z,27.15
2022-08-21T11:08:32.165Z,26.80
2022-08-21T11:11:15.732Z,27.32
2022-08-21T11:13:52.195Z,27.41
2022-08-21T11:16:39.010Z,26.67
2022-08-21T11:19:09.138Z,27.04
2022-08-21T11:21:53.250Z,26.68
2022-08-21T11:24:35.017Z,27.31
2022-08-21T11:27:20.229Z,27.64
2022-08-21T11:29:51.282Z,27.50
2022-08-21T11:32:36.956Z,27.46
2022-08-21T11:35:31.439Z,27.58
2022-08-21T11:37:58.203Z,27.42
2022-08-21T11:40:49.999Z,26.82
2022-08-21T11:43:26.263Z,27.44
2022-08-21T11:45:59.055Z,27.81
2022-08-21T11:48:34.917Z,27.85
2022-08-21T11:51:06.899Z,27.63
2022-08-21T11:54:11.984Z,27.59
2022-08-21T11:56:43.385Z,27.96
2022-08-21T11:59:14.748Z,27.82
2022-08-21T12:01:45.810Z,28.04
2022-08-21T12:04:26.259Z,28.00
2022-08-21T12:06:53.511Z,28.16
2022-08-21T12:09:26.435Z,27.71
2022-08-21T12:12:11.390Z,28.28
2022-08-21T12:14:39.021Z,28.25
2022-08-21T12:17:12.241Z,28.37
2022-08-21T12:19:42.394Z,28.59
2022-08-21T12:22:14.882Z,28.62
2022-08-21T12:24:47.590Z,28.06
2022-08-21T12:27:45.976Z,27.92
2022-08-21T12:30:37.449Z,28.48
2022-08-21T12:33:07.080Z,28.32
2022-08-21T12:35:37.069Z,28.45
2022-08-21T12:38:10.668Z,28.48
2022-08-21T12:40:43.790Z,29.17
2022-08-21T12:43:20.415Z,27.94
2022-08-21T12:45:49.269Z,28.71
2022-08-21T12:48:25.257Z,28.05
2022-08-21T12:51:05.880Z,28.48
2022-08-21T12:53:47.690Z,28.37
2022-08-21T12:56:17.376Z,28.53
2022-08-21T12:58:50.295Z,28.48
2022-08-21T13:01:53.497Z,28.26
2022-08-21T13:04:33.458Z,28.24
2022-08-21T13:07:00.888Z,28.11
2022-08-21T13:09:29.723Z,28.55
2022-08-21T13:11:57.822Z,28.31
2022-08-21T13:14:30.520Z,28.47
2022-08-21T13:17:01.459Z,27.94
2022-08-21T13:19:30.490Z,28.05
2022-08-21T13:21:57.388Z,28.09
2022-08-21T13:24:42.221Z,28.23
2022-08-21T13:27:31.095Z,28.03
2022-08-21T13:30:13.649Z,28.11
2022-08-21T13:32:43.670Z,28.03
2022-08-21T13:35:28.702Z,28.01
2022-08-21T13:37:56.082Z,28.05
2022-08-21T13:40:32.861Z,28.41
2022-08-21T13:43:00.979Z,28.26
2022-08-21T13:45:32.310Z,28.73
2022-08-21T13:48:00.896Z,28.50
2022-08-21T13:50:35.357Z,28.17
2022-08-21T13:53:05.207Z,28.70
2022-08-21T13:55:42.958Z,28.65
2022-08-21T13:58:11.180Z,28.60
2022-08-21T14:00:52.247Z,28.72
2022-08-21T14:03:53.681Z,28.54
2022-08-21T14:06:28.136Z,28.68
2022-08-21T14:08:59.148Z,28.28
2022-08-21T14:11:27.839Z,28.52
2022-08-21T14:13:56.522Z,28.01
2022-08-21T14:16:26.726Z,28.37
2022-08-21T14:19:04.024Z,27.91
2022-08-21T14:21:40.391Z,28.21
2022-08-21T14:24:19.433Z,28.24
2022-08-21T14:26:54.059Z,27.87
2022-08-21T14:29:23.692Z,27.72
2022-08-21T14:31:59.345Z,28.23
2022-08-21T14:34:31.851Z,28.16
2022-08-21T14:37:02.441Z,28.22
2022-08-21T14:39:29.193Z,28.33
2022-08-21T14:41:59.190Z,28.13
2022-08-21T14:44:27.965Z,28.26
2022-08-21T14:46:56.897Z,28.11
2022-08-21T14:49:30.582Z,28.02
2022-08-21T14:51:58.833Z,28.08
2022-08-21T14:54:29.583Z,28.12
2022-08-21T14:57:01.057Z,27.88
2022-08-21T14:59:27.801Z,28.09
2022-08-21T15:01:59.100Z,28.44
2022-08-21T15:04:28.967Z,28.49
2022-08-21T15:07:03.442Z,27.88
2022-08-21T15:09:30.287Z,28.29
2022-08-21T15:11:58.782Z,27.88
2022-08-21T15:14:28.318Z,27.79
2022-08-21T15:17:16.689Z,28.40
2022-08-21T15:19:43.620Z,27.98
2022-08-21T15:22:18.732Z,27.70
2022-08-21T15:24:48.807Z,27.94
2022-08-21T15:27:17.178Z,28.02
2022-08-21T15:29:43.986Z,27.50
2022-08-21T15:32:23.928Z,27.58
2022-08-21T15:34:52.469Z,27.70
2022-08-21T15:37:50.784Z,27.48
2022-08-21T15:40:22.067Z,28.15
2022-08-21T15:46:02.827Z,28.17
2022-08-21T15:48:29.917Z,28.45
2022-08-21T15:50:56.730Z,28.34
2022-08-21T15:53:26.292Z,28.17
2022-08-21T15:55:52.993Z,28.22
2022-08-21T15:58:21.739Z,28.41
2022-08-21T16:00:48.763Z,27.96
2022-08-21T16:03:17.924Z,27.75
2022-08-21T16:05:50.137Z,28.33
2022-08-21T16:08:16.935Z,28.18
2022-08-21T16:10:43.715Z,27.88
2022-08-21T16:13:19.220Z,28.32
2022-08-21T16:15:49.361Z,27.92
2022-08-21T16:18:16.188Z,28.07
2022-08-21T16:20:42.982Z,27.97
2022-08-21T16:23:09.747Z,27.85
2022-08-21T16:25:38.798Z,28.04
2022-08-21T16:28:12.271Z,27.60
2022-08-21T16:30:40.955Z,27.10
2022-08-21T16:33:08.615Z,27.51
2022-08-21T16:35:35.378Z,27.86
2022-08-21T16:38:05.322Z,27.53
2022-08-21T16:40:32.158Z,27.57
2022-08-21T16:42:59.162Z,26.76
2022-08-21T16:45:28.801Z,27.27
2022-08-21T16:47:59.566Z,27.61
2022-08-21T16:50:26.350Z,27.29
2022-08-21T16:52:54.388Z,27.06
2022-08-21T16:55:21.282Z,27.44
2022-08-21T16:57:48.040Z,27.11
2022-08-21T17:00:18.313Z,27.05
2022-08-21T17:02:47.884Z,27.59
2022-08-21T17:05:14.895Z,27.63
2022-08-21T17:07:43.190Z,27.86
2022-08-21T17:10:10.825Z,27.51
2022-08-21T17:12:37.722Z,27.96
2022-08-21T17:15:21.602Z,28.10
2022-08-21T17:17:48.599Z,27.66
2022-08-21T17:20:15.770Z,27.96
2022-08-21T17:22:42.970Z,27.88
2022-08-21T17:25:10.325Z,28.01
2022-08-21T17:27:37.080Z,28.14
2022-08-21T17:30:06.485Z,28.23
2022-08-21T17:32:33.289Z,28.21
2022-08-21T17:35:02.706Z,28.26
2022-08-21T17:37:29.624Z,28.31
2022-08-21T17:39:56.886Z,28.28
2022-08-21T17:42:26.196Z,28.05
2022-08-21T17:44:56.315Z,27.82
2022-08-21T17:47:23.277Z,27.80
2022-08-21T17:49:50.190Z,27.96
2022-08-21T17:52:16.989Z,28.12
2022-08-21T17:54:43.712Z,28.03
2022-08-21T17:57:22.954Z,28.08
2022-08-21T17:59:49.897Z,28.01
2022-08-21T18:02:19.988Z,28.03
2022-08-21T18:04:50.508Z,27.97
2022-08-21T18:07:32.379Z,28.04
2022-08-21T18:10:06.445Z,27.97
2022-08-21T18:12:34.085Z,27.93
2022-08-21T18:15:02.254Z,27.92
2022-08-21T18:17:30.377Z,27.90
2022-08-21T18:19:59.375Z,27.95
2022-08-21T18:22:27.138Z,27.91
2022-08-21T18:24:53.910Z,27.89
2022-08-21T18:27:21.540Z,27.80
2022-08-21T18:29:54.901Z,27.77
2022-08-21T18:32:31.234Z,27.73
2022-08-21T18:37:41.989Z,27.60
2022-08-21T18:40:09.704Z,27.58
2022-08-21T18:42:55.194Z,27.59
2022-08-21T18:45:23.221Z,27.56
2022-08-21T18:47:55.316Z,27.42
2022-08-21T18:50:25.028Z,27.51
2022-08-21T18:53:24.109Z,27.47
2022-08-21T18:55:42.428Z,27.45
2022-08-21T18:58:09.388Z,27.39
2022-08-21T19:00:45.908Z,27.36
2022-08-21T19:03:22.798Z,27.36
2022-08-21T19:05:52.206Z,27.32
2022-08-21T19:08:20.708Z,27.32
2022-08-21T19:10:49.127Z,27.32
2022-08-21T19:13:18.486Z,27.18
2022-08-21T19:15:49.949Z,27.12
2022-08-21T19:18:19.376Z,27.12
2022-08-21T19:20:48.191Z,27.10
2022-08-21T19:23:16.746Z,27.08
2022-08-21T19:25:51.792Z,26.96
2022-08-21T19:28:22.946Z,26.84
2022-08-21T19:31:02.298Z,26.83
2022-08-21T19:33:35.041Z,26.81
2022-08-21T19:36:04.549Z,26.80
2022-08-21T19:38:31.425Z,26.78
2022-08-21T19:40:59.028Z,26.78
2022-08-21T19:43:26.217Z,26.62
2022-08-21T19:45:57.191Z,26.48
2022-08-21T19:48:24.810Z,26.58
2022-08-21T19:50:53.182Z,26.45
2022-08-21T19:53:20.117Z,26.38
2022-08-21T19:55:48.211Z,26.32
2022-08-21T19:58:37.428Z,26.11
2022-08-21T20:01:11.561Z,26.14
2022-08-21T20:03:43.872Z,25.80
2022-08-21T20:06:11.114Z,25.83
2022-08-21T20:08:38.141Z,26.00
2022-08-21T20:11:05.388Z,25.98
2022-08-21T20:13:33.973Z,25.73
2022-08-21T20:16:09.224Z,25.79
2022-08-21T20:18:37.499Z,26.05
2022-08-21T20:21:07.727Z,26.10
2022-08-21T20:23:35.792Z,25.97
2022-08-21T20:26:10.022Z,26.02
2022-08-21T20:28:37.491Z,25.87
2022-08-21T20:31:09.504Z,25.93
2022-08-21T20:33:37.402Z,25.79
2022-08-21T20:36:04.880Z,25.86
2022-08-21T20:38:31.838Z,25.86
2022-08-21T20:40:59.011Z,25.68
2022-08-21T20:43:27.988Z,25.46
2022-08-21T20:45:55.505Z,25.68
2022-08-21T20:48:31.852Z,25.71
2022-08-21T20:51:31.121Z,25.60
2022-08-21T20:54:07.948Z,25.36
2022-08-21T20:56:42.490Z,25.65
2022-08-21T20:59:19.964Z,25.71
2022-08-21T21:01:48.437Z,25.67
2022-08-21T21:04:21.414Z,25.79
2022-08-21T21:06:49.773Z,25.74
2022-08-21T21:09:27.133Z,25.83
2022-08-21T21:12:01.015Z,25.57
2022-08-21T21:14:48.724Z,25.43
2022-08-21T21:17:30.633Z,25.14
2022-08-21T21:20:03.591Z,25.44
2022-08-21T21:22:37.057Z,25.62
2022-08-21T21:25:11.212Z,24.85
2022-08-21T21:27:49.058Z,25.31
2022-08-21T21:30:24.380Z,25.11
2022-08-21T21:32:53.214Z,25.19
2022-08-21T21:35:33.074Z,25.25
2022-08-21T21:38:22.734Z,25.52
2022-08-21T21:41:07.746Z,25.14
2022-08-21T21:43:56.700Z,24.92
2022-08-21T21:46:49.625Z,24.82
2022-08-21T21:49:49.666Z,24.90
2022-08-21T21:52:28.495Z,25.25
2022-08-21T21:58:10.642Z,24.92
2022-08-21T22:00:52.048Z,24.90
2022-08-21T22:03:26.743Z,25.06
2022-08-21T22:05:56.189Z,24.98
2022-08-21T22:08:39.250Z,25.03
2022-08-21T22:11:24.072Z,24.83
2022-08-21T22:14:05.804Z,25.07
2022-08-21T22:16:36.014Z,25.18
2022-08-21T22:19:29.327Z,25.12
2022-08-21T22:22:06.675Z,25.18
2022-08-21T22:24:40.320Z,25.34
2022-08-21T22:27:11.132Z,25.10
2022-08-21T22:29:49.456Z,25.18
2022-08-21T22:32:40.152Z,25.22
2022-08-21T22:35:20.134Z,25.22
2022-08-21T22:37:53.534Z,25.21
2022-08-21T22:40:23.763Z,25.08
2022-08-21T22:42:58.992Z,25.24
2022-08-21T22:45:26.674Z,25.32
2022-08-21T22:47:54.009Z,25.27
2022-08-21T22:50:26.968Z,25.36
2022-08-21T22:53:00.479Z,25.42
2022-08-21T22:55:37.668Z,25.11
2022-08-21T22:58:14.650Z,25.34
2022-08-21T23:00:49.547Z,25.35
2022-08-21T23:03:43.625Z,25.39
2022-08-21T23:06:35.080Z,25.44
2022-08-21T23:09:02.262Z,25.30
2022-08-21T23:11:51.024Z,25.22
2022-08-21T23:14:22.781Z,24.84
2022-08-21T23:17:08.251Z,24.96
2022-08-21T23:19:56.664Z,25.20
2022-08-21T23:22:49.096Z,25.06
2022-08-21T23:25:38.926Z,25.15
2022-08-21T23:28:23.991Z,25.16
2022-08-21T23:31:25.387Z,25.18
2022-08-21T23:34:15.826Z,24.87
2022-08-21T23:37:23.661Z,25.10
2022-08-21T23:40:04.044Z,25.07
2022-08-21T23:43:02.242Z,25.15
2022-08-21T23:45:36.639Z,25.11
2022-08-21T23:51:13.584Z,24.79
2022-08-21T23:53:50.579Z,25.07
2022-08-21T23:56:32.185Z,24.77
